createdAt,value
2018-09-21T00:03:33.671Z,52
2018-09-21T00:08:36.303Z,52
2018-09-21T00:13:38.554Z,52
2018-09-21T00:18:41.001Z,52
2018-09-21T00:23:43.656Z,51.9
2018-09-21T00:28:45.928Z,51.8
2018-09-21T00:33:48.299Z,51.5
2018-09-21T00:38:50.732Z,51.8
2018-09-21T00:43:53.154Z,52
2018-09-21T00:48:55.638Z,52.5
2018-09-21T00:53:58.126Z,52.4
2018-09-21T00:59:00.522Z,52.4
2018-09-21T01:04:02.933Z,52.4
2018-09-21T01:09:06.426Z,52.7
2018-09-21T01:34:17.891Z,53.4
2018-09-21T01:39:20.026Z,53.6
2018-09-21T01:44:22.464Z,53.8
2018-09-21T01:49:24.912Z,53.7
2018-09-21T01:54:27.398Z,53.9
2018-09-21T01:59:29.948Z,54
2018-09-21T02:04:32.229Z,54.1
2018-09-21T02:09:34.703Z,54.2
2018-09-21T02:14:37.206Z,54.2
2018-09-21T02:19:39.583Z,54.5
2018-09-21T02:24:42.006Z,54.9
2018-09-21T02:29:44.451Z,54.9
2018-09-21T02:34:46.952Z,54.5
2018-09-21T02:39:49.312Z,54.5
2018-09-21T02:44:51.746Z,54.6
2018-09-21T02:49:54.192Z,54.5
2018-09-21T02:54:56.621Z,54.5
2018-09-21T02:59:59.165Z,54.6
2018-09-21T03:05:01.596Z,54.7
2018-09-21T03:10:03.973Z,54.8
2018-09-21T03:15:06.517Z,55
2018-09-21T03:20:08.854Z,55.1
2018-09-21T03:30:13.840Z,54.9
2018-09-21T03:35:16.155Z,55
2018-09-21T03:40:18.641Z,55.1
2018-09-21T03:45:21.107Z,55.2
2018-09-21T03:50:23.491Z,55
2018-09-21T03:55:26.011Z,54.9
2018-09-21T04:00:28.492Z,54.9
2018-09-21T04:05:30.809Z,54.8
2018-09-21T04:10:33.434Z,54.9
2018-09-21T04:15:35.763Z,55.3
2018-09-21T04:20:38.213Z,55.4
2018-09-21T04:25:40.684Z,55.1
2018-09-21T04:30:43.022Z,54.8
2018-09-21T04:35:45.536Z,54.5
2018-09-21T04:40:47.915Z,54.5
2018-09-21T04:45:50.429Z,54.3
2018-09-21T04:50:52.844Z,54.1
2018-09-21T04:55:55.377Z,54.1
2018-09-21T05:00:57.707Z,54
2018-09-21T05:06:00.277Z,53.9
2018-09-21T05:11:02.599Z,53.8
2018-09-21T05:16:05.162Z,53.6
2018-09-21T05:21:07.405Z,53.3
2018-09-21T05:26:10.170Z,53.2
2018-09-21T05:31:12.283Z,53.2
2018-09-21T05:36:14.740Z,53.1
2018-09-21T05:41:17.171Z,53
2018-09-21T05:46:19.651Z,52.7
2018-09-21T05:51:22.132Z,52.2
2018-09-21T05:56:24.525Z,51.3
2018-09-21T06:01:26.948Z,51
2018-09-21T06:06:29.416Z,50.2
2018-09-21T06:11:31.834Z,49.9
2018-09-21T06:16:34.252Z,49.7
2018-09-21T06:21:36.724Z,49.2
2018-09-21T06:26:39.140Z,48.9
2018-09-21T06:31:41.643Z,49
2018-09-21T06:36:44.023Z,49.2
2018-09-21T06:41:46.518Z,49.4
2018-09-21T06:46:49.177Z,49.6
2018-09-21T06:51:51.363Z,49.7
2018-09-21T06:56:54.073Z,49.5
2018-09-21T07:01:56.277Z,49.4
2018-09-21T07:06:58.689Z,49.3
2018-09-21T07:12:01.103Z,49
2018-09-21T07:17:03.548Z,48.4
2018-09-21T07:22:06.059Z,48.3
2018-09-21T07:27:08.436Z,48.1
2018-09-21T07:32:10.896Z,48.2
2018-09-21T07:37:13.613Z,48.4
2018-09-21T07:42:15.748Z,48.3
2018-09-21T07:47:18.296Z,48.2
2018-09-21T07:52:20.655Z,48.4
2018-09-21T07:57:23.198Z,47.7
2018-09-21T08:02:25.521Z,47.8
2018-09-21T08:07:28.365Z,47.4
2018-09-21T08:12:30.414Z,47.5
2018-09-21T08:17:32.834Z,47.5
2018-09-21T08:22:35.286Z,47.9
2018-09-21T08:27:37.773Z,48.1
2018-09-21T08:32:40.208Z,48
2018-09-21T08:37:42.612Z,47.9
2018-09-21T08:42:45.472Z,47.9
2018-09-21T08:47:47.491Z,47.5
2018-09-21T08:52:49.932Z,46.9
2018-09-21T08:57:52.503Z,45.4
2018-09-21T09:02:54.858Z,45.3
2018-09-21T09:07:57.309Z,44.7
2018-09-21T09:12:59.769Z,44.8
2018-09-21T09:18:02.134Z,44.5
2018-09-21T09:23:04.617Z,44.7
2018-09-21T09:28:07.223Z,44.6
2018-09-21T09:33:09.480Z,44.2
2018-09-21T09:38:11.914Z,44.1
2018-09-21T09:43:14.451Z,43.6
2018-09-21T09:48:16.924Z,43.5
2018-09-21T09:53:19.338Z,43.6
2018-09-21T09:58:21.778Z,42.9
2018-09-21T10:03:24.159Z,42.9
2018-09-21T10:08:26.549Z,41.6
2018-09-21T10:13:28.996Z,41.5
2018-09-21T10:18:31.421Z,39.4
2018-09-21T10:23:33.897Z,38.8
2018-09-21T10:28:36.705Z,39.5
2018-09-21T10:33:38.975Z,38
2018-09-21T10:38:41.300Z,37.7
2018-09-21T10:43:43.865Z,37
2018-09-21T10:48:46.094Z,37.3
2018-09-21T10:53:48.618Z,36.8
2018-09-21T10:58:51.029Z,35.4
2018-09-21T11:03:53.403Z,35.2
2018-09-21T11:08:55.985Z,35.6
2018-09-21T11:13:58.461Z,36
2018-09-21T11:19:00.801Z,35.4
2018-09-21T11:24:03.231Z,35.5
2018-09-21T11:29:05.648Z,35.3
2018-09-21T11:34:08.092Z,35.5
2018-09-21T11:39:10.548Z,35
2018-09-21T11:44:12.997Z,35.6
2018-09-21T11:49:15.485Z,35.6
2018-09-21T11:54:17.961Z,35.5
2018-09-21T11:59:20.373Z,35.4
2018-09-21T12:04:22.742Z,33.3
2018-09-21T12:09:25.189Z,33.9
2018-09-21T12:14:27.755Z,33.8
2018-09-21T12:19:30.321Z,33.5
2018-09-21T12:24:32.580Z,34.8
2018-09-21T12:29:34.987Z,35.4
2018-09-21T12:34:37.417Z,36.3
2018-09-21T12:39:39.844Z,36.9
2018-09-21T12:44:42.338Z,37.3
2018-09-21T12:49:44.759Z,36.3
2018-09-21T12:54:47.129Z,36.2
2018-09-21T12:59:49.585Z,35.5
2018-09-21T13:04:52.381Z,35.9
2018-09-21T13:09:54.463Z,36.1
2018-09-21T13:14:56.925Z,36
2018-09-21T13:19:59.397Z,36.6
2018-09-21T13:25:01.911Z,37.1
2018-09-21T13:30:04.401Z,37.5
2018-09-21T13:35:06.763Z,37.7
2018-09-21T13:40:09.199Z,38
2018-09-21T13:45:11.695Z,38
2018-09-21T13:50:14.027Z,38.2
2018-09-21T13:55:16.493Z,38
2018-09-21T14:00:19.060Z,38.2
2018-09-21T14:05:21.597Z,38.5
2018-09-21T14:10:23.774Z,38.8
2018-09-21T14:15:26.329Z,39
2018-09-21T14:20:28.678Z,39
2018-09-21T14:25:31.260Z,39.3
2018-09-21T14:30:33.550Z,39.7
2018-09-21T14:35:36.054Z,40.2
2018-09-21T14:40:38.507Z,40.5
2018-09-21T14:45:40.899Z,41.1
2018-09-21T14:50:43.334Z,44.1
2018-09-21T14:55:45.751Z,47
2018-09-21T15:00:48.216Z,48.4
2018-09-21T15:05:50.637Z,51.2
2018-09-21T15:10:53.145Z,53.4
2018-09-21T15:15:55.536Z,54.1
2018-09-21T15:20:58.067Z,54.5
2018-09-21T15:26:00.436Z,54.3
2018-09-21T15:31:02.877Z,53.8
2018-09-21T15:36:05.353Z,52.8
2018-09-21T15:41:07.743Z,52.6
2018-09-21T15:46:10.443Z,52.9
2018-09-21T15:51:12.929Z,53.4
2018-09-21T15:56:15.115Z,54
2018-09-21T16:01:17.525Z,54.1
2018-09-21T16:06:19.924Z,54.5
2018-09-21T16:11:22.504Z,53.8
2018-09-21T16:16:24.842Z,53.7
2018-09-21T16:21:27.284Z,53.8
2018-09-21T16:26:29.696Z,53.9
2018-09-21T16:31:32.132Z,50.5
2018-09-21T16:36:34.610Z,50.4
2018-09-21T16:41:37.057Z,50.9
2018-09-21T16:46:39.492Z,51.6
2018-09-21T16:51:41.946Z,52.3
2018-09-21T17:07:05.348Z,54.2
2018-09-21T17:11:51.995Z,53.9
2018-09-21T17:16:54.125Z,54
2018-09-21T17:21:56.854Z,54.2
2018-09-21T17:26:59.147Z,54.5
2018-09-21T17:32:01.475Z,54.6
2018-09-21T17:37:03.983Z,54.7
2018-09-21T17:42:06.303Z,54.9
2018-09-21T17:47:08.866Z,55.3
2018-09-21T17:52:11.189Z,54.4
2018-09-21T17:57:13.616Z,54.3
2018-09-21T18:02:16.401Z,54.1
2018-09-21T18:07:18.518Z,54.1
2018-09-21T18:12:21.271Z,54.1
2018-09-21T18:17:23.397Z,54.6
2018-09-21T18:22:25.922Z,55.4
2018-09-21T18:27:28.283Z,55.9
2018-09-21T18:32:30.776Z,56.3
2018-09-21T18:37:33.234Z,56.4
2018-09-21T18:42:35.634Z,56.5
2018-09-21T18:47:38.025Z,56.3
2018-09-21T18:52:40.578Z,56.2
2018-09-21T18:57:42.977Z,56
2018-09-21T19:02:45.368Z,56.3
2018-09-21T19:07:47.833Z,56.3
2018-09-21T19:12:50.241Z,56.3
2018-09-21T19:17:52.679Z,56.3
2018-09-21T19:22:55.194Z,56.2
2018-09-21T19:27:57.683Z,56.1
2018-09-21T19:33:00.130Z,56.2
2018-09-21T19:38:02.451Z,56.1
2018-09-21T19:43:05.007Z,56.1
2018-09-21T19:48:07.326Z,56.2
2018-09-21T19:53:09.856Z,56.2
2018-09-21T19:58:12.231Z,56.4
2018-09-21T20:03:14.983Z,56.5
2018-09-21T20:08:17.092Z,56.5
2018-09-21T20:13:19.638Z,56.4
2018-09-21T20:18:21.949Z,56.6
2018-09-21T20:23:24.413Z,56.8
2018-09-21T20:28:26.982Z,56.7
2018-09-21T20:33:29.289Z,56.4
2018-09-21T20:38:31.739Z,56.4
2018-09-21T20:43:34.265Z,56.3
2018-09-21T20:48:36.601Z,56.2
2018-09-21T20:53:39.035Z,56.1
2018-09-21T20:58:41.751Z,56.1
2018-09-21T21:03:44.111Z,56
2018-09-21T21:08:46.350Z,55.7
2018-09-21T21:13:49.339Z,55.9
2018-09-21T21:18:51.251Z,55.7
2018-09-21T21:23:53.682Z,55.7
2018-09-21T21:28:56.117Z,55.7
2018-09-21T21:33:58.734Z,55.7
2018-09-21T21:39:01.074Z,55.7
2018-09-21T21:44:03.459Z,55.8
2018-09-21T21:49:05.878Z,55.7
2018-09-21T21:54:08.325Z,55.4
2018-09-21T21:59:10.762Z,55.2
2018-09-21T22:04:13.224Z,55.1
2018-09-21T22:09:15.672Z,55
2018-09-21T22:14:18.111Z,54.9
2018-09-21T22:19:20.526Z,54.5
2018-09-21T22:24:22.973Z,54.2
2018-09-21T22:29:25.428Z,54.2
2018-09-21T22:34:27.836Z,53.5
2018-09-21T22:39:30.303Z,53.5
2018-09-21T22:44:32.716Z,53.3
2018-09-21T22:49:35.182Z,53
2018-09-21T22:54:37.601Z,53
2018-09-21T22:59:40.082Z,52.7
2018-09-21T23:04:42.569Z,52.6
2018-09-21T23:09:44.950Z,52.4
2018-09-21T23:14:47.377Z,52.1
2018-09-21T23:19:49.868Z,51.9
2018-09-21T23:24:52.259Z,51.7
2018-09-21T23:29:54.728Z,51.6
2018-09-21T23:34:57.139Z,51.6
2018-09-21T23:39:59.720Z,51.5
2018-09-21T23:45:02.083Z,51.4
2018-09-21T23:50:04.448Z,51.4
2018-09-21T23:55:06.886Z,51.4
